Hilldale, Tennessee
Current Conditions -  °F | °C
As of 9:52 AM on Tuesday 21 Oct 2014 (Local Time) from KCKV Reporting Station
Clear Clear  
Wind Chill: 17°   Ceiling: Unl
Heat Index: 17°   Visibility: 10mi
Dew Point: 10°   Wind: 6mph
Humidity: 65%   Direction: 320°NW
Pressure: 30.08"   Gusts: NA
Location:  36.4964°N, 87.234°W
Report Text: KCKV 211452Z AUTO 32005KT 10SM CLR 17/10 A3008 RMK AO2 SLP182 T01670100 51013
Loading
Personal Weather Stations






























Interactive Weather Map
Tropical Storm Tracking
New forecast layout! Learn more

10-Day Weather Forecast

Advertisements
Track Severe Weather on mobile